Ballincollig, Ireland
Current Conditions -  °F | °C
As of 8:30 AM on Monday 24 Nov 2014 (Local Time) from EICK Reporting Station
Broken Clouds Broken Clouds  
Wind Chill:   Ceiling: 3300
Heat Index:   Visibility: 6mi
Dew Point:   Wind: 5mph
Humidity: 87%   Direction: 180°S
Pressure: 30.24"   Gusts: NA
Location:  51.89°N, 8.59°W
Report Text: EICK 240830Z 18004KT 9999 BKN033 06/04 Q1024 NOSIG
Loading
Personal Weather Stations






























Interactive Weather Map New forecast layout! Learn more

10-Day Weather Forecast

Advertisements
Track Severe Weather on mobile